Time;durP1;ratioP1;P1;durP2;ratioP2;P2;SDS_P1;SDS_P2;PMS_P1;PMS_P2;Temp;Humidity;BMP_temperature;BMP_pressure;BME280_temperature;BME280_humidity;BME280_pressure;Samples;Min_cycle;Max_cycle;Signal;HPM_P1;HPM_P2
2024/01/01 00:01:41;;;;;;;48.73;32.17;;;;;;;;;;5073427;28;20939;-62
2024/01/01 00:04:08;;;;;;;46.30;34.37;;;;;;;;;;5073275;28;20483;-62
2024/01/01 00:06:35;;;;;;;48.50;35.30;;;;;;;;;;5073248;28;20535;-62
2024/01/01 00:09:03;;;;;;;52.30;38.60;;;;;;;;;;5073516;28;20451;-62
2024/01/01 00:11:30;;;;;;;52.73;39.97;;;;;;;;;;5073507;28;20543;-62
2024/01/01 00:13:57;;;;;;;55.53;44.80;;;;;;;;;;5073335;28;20542;-62
2024/01/01 00:16:24;;;;;;;63.47;45.93;;;;;;;;;;5073183;28;20443;-62
2024/01/01 00:18:52;;;;;;;72.17;47.00;;;;;;;;;;5073072;28;20526;-62
2024/01/01 00:21:19;;;;;;;86.33;63.20;;;;;;;;;;5073575;28;20530;-62
2024/01/01 00:23:46;;;;;;;70.97;53.30;;;;;;;;;;5073129;28;20489;-62
2024/01/01 00:26:14;;;;;;;74.47;51.60;;;;;;;;;;5072897;28;20443;-62
2024/01/01 00:28:41;;;;;;;71.10;49.40;;;;;;;;;;5072993;28;20534;-62
2024/01/01 00:31:08;;;;;;;66.70;47.00;;;;;;;;;;5072997;28;20792;-62
2024/01/01 00:33:35;;;;;;;63.67;43.47;;;;;;;;;;5072885;28;20451;-62
2024/01/01 00:36:02;;;;;;;64.80;46.00;;;;;;;;;;5073073;28;20443;-62
2024/01/01 00:38:29;;;;;;;62.20;44.47;;;;;;;;;;5073050;28;20534;-62
2024/01/01 00:40:56;;;;;;;63.00;46.07;;;;;;;;;;5072957;28;20454;-62
2024/01/01 00:43:24;;;;;;;59.27;46.77;;;;;;;;;;5073064;28;20491;-62
2024/01/01 00:45:51;;;;;;;56.90;42.30;;;;;;;;;;5072840;28;20495;-62
2024/01/01 00:48:18;;;;;;;58.97;42.37;;;;;;;;;;5073055;28;20453;-62
2024/01/01 00:50:45;;;;;;;58.27;43.30;;;;;;;;;;5073001;28;20867;-62
2024/01/01 00:53:12;;;;;;;58.30;42.17;;;;;;;;;;5072701;28;20954;-62
2024/01/01 00:55:39;;;;;;;50.07;37.20;;;;;;;;;;5072783;28;20996;-62
2024/01/01 00:58:06;;;;;;;120.17;66.10;;;;;;;;;;5072743;28;20534;-62
2024/01/01 01:00:34;;;;;;;57.83;43.43;;;;;;;;;;5072634;28;20938;-62
2024/01/01 01:03:01;;;;;;;45.90;32.20;;;;;;;;;;5072893;28;20570;-62
2024/01/01 01:05:28;;;;;;;47.10;34.23;;;;;;;;;;5072742;28;20531;-62
2024/01/01 01:07:55;;;;;;;44.13;31.80;;;;;;;;;;5072753;28;20451;-62
2024/01/01 01:10:22;;;;;;;47.47;31.53;;;;;;;;;;5072570;28;20475;-62
2024/01/01 01:12:50;;;;;;;43.83;29.47;;;;;;;;;;5072622;28;20497;-62
2024/01/01 01:15:17;;;;;;;38.33;27.57;;;;;;;;;;5072521;28;20803;-62
2024/01/01 01:17:45;;;;;;;40.17;28.40;;;;;;;;;;5072678;28;20530;-62
2024/01/01 01:20:12;;;;;;;34.30;24.33;;;;;;;;;;5072686;28;20492;-62
2024/01/01 01:22:39;;;;;;;30.00;24.10;;;;;;;;;;5072445;28;20471;-62
2024/01/01 01:25:07;;;;;;;30.80;24.77;;;;;;;;;;5072542;28;20538;-62
2024/01/01 01:27:34;;;;;;;36.57;26.73;;;;;;;;;;5072413;28;20448;-62
2024/01/01 01:30:01;;;;;;;27.77;20.53;;;;;;;;;;5072664;28;20542;-62
2024/01/01 01:32:28;;;;;;;29.43;22.80;;;;;;;;;;5072529;28;20555;-62
2024/01/01 01:34:56;;;;;;;25.10;20.17;;;;;;;;;;5072534;28;20455;-62
2024/01/01 01:37:23;;;;;;;27.53;20.93;;;;;;;;;;5074421;28;20449;-62
2024/01/01 01:39:50;;;;;;;23.10;17.50;;;;;;;;;;5076174;28;20453;-62
2024/01/01 01:42:17;;;;;;;22.70;17.47;;;;;;;;;;5075976;28;20554;-62
2024/01/01 01:44:44;;;;;;;21.50;17.13;;;;;;;;;;5076139;28;20443;-62
2024/01/01 01:47:11;;;;;;;22.53;17.47;;;;;;;;;;5076039;28;20447;-62
2024/01/01 01:49:38;;;;;;;24.30;16.70;;;;;;;;;;5076066;28;20534;-62
2024/01/01 01:52:08;;;;;;;21.77;17.30;;;;;;;;;;5075884;28;20439;-62
2024/01/01 01:54:35;;;;;;;24.03;16.93;;;;;;;;;;5075629;28;20512;-62
2024/01/01 01:57:02;;;;;;;19.20;15.20;;;;;;;;;;5075829;28;20530;-62
2024/01/01 01:59:30;;;;;;;23.47;16.87;;;;;;;;;;5075971;28;20470;-62
2024/01/01 02:01:57;;;;;;;18.37;15.70;;;;;;;;;;5075888;28;20447;-62
2024/01/01 02:04:24;;;;;;;19.97;15.73;;;;;;;;;;5075663;28;20483;-63
2024/01/01 02:06:51;;;;;;;21.27;15.70;;;;;;;;;;5075703;28;20439;-62
2024/01/01 02:09:20;;;;;;;16.80;14.40;;;;;;;;;;5075541;28;20447;-62
2024/01/01 02:11:47;;;;;;;18.00;15.23;;;;;;;;;;5075810;28;20443;-62
2024/01/01 02:14:14;;;;;;;16.90;13.67;;;;;;;;;;5075510;28;20965;-62
2024/01/01 02:16:43;;;;;;;19.67;14.73;;;;;;;;;;5075411;28;20953;-63
2024/01/01 02:19:16;;;;;;;18.43;14.60;;;;;;;;;;5075495;28;20471;-63
2024/01/01 02:21:43;;;;;;;17.27;14.70;;;;;;;;;;5075477;28;20826;-63
2024/01/01 02:24:11;;;;;;;18.97;15.20;;;;;;;;;;5075212;28;20566;-62
2024/01/01 02:26:38;;;;;;;24.17;14.80;;;;;;;;;;5075462;28;20451;-62
2024/01/01 02:29:05;;;;;;;20.73;14.47;;;;;;;;;;5075312;28;20534;-62
2024/01/01 02:31:32;;;;;;;18.50;15.00;;;;;;;;;;5075295;28;20451;-63
2024/01/01 02:33:59;;;;;;;23.67;15.33;;;;;;;;;;5075211;28;20550;-62
2024/01/01 02:36:26;;;;;;;18.87;14.97;;;;;;;;;;5075231;28;20446;-63
2024/01/01 02:38:53;;;;;;;31.30;25.87;;;;;;;;;;5075265;28;20442;-62
2024/01/01 02:41:21;;;;;;;67.93;54.17;;;;;;;;;;5075162;28;20526;-62
2024/01/01 02:43:48;;;;;;;64.07;49.23;;;;;;;;;;5075041;28;20970;-62
2024/01/01 02:46:15;;;;;;;54.60;44.80;;;;;;;;;;5075003;28;20553;-62
2024/01/01 02:48:42;;;;;;;55.63;44.93;;;;;;;;;;5074655;28;20443;-63
2024/01/01 02:51:09;;;;;;;48.27;40.17;;;;;;;;;;5075275;28;20532;-62
2024/01/01 02:53:36;;;;;;;48.40;40.40;;;;;;;;;;5074994;28;20440;-62
2024/01/01 02:56:03;;;;;;;43.83;37.40;;;;;;;;;;5074813;28;20472;-62
2024/01/01 02:58:31;;;;;;;37.67;30.83;;;;;;;;;;5074806;28;20876;-62
2024/01/01 03:00:58;;;;;;;24.87;20.90;;;;;;;;;;5074718;28;20447;-62
2024/01/01 03:03:25;;;;;;;26.33;20.70;;;;;;;;;;5074532;28;20824;-62
2024/01/01 03:05:52;;;;;;;22.67;16.57;;;;;;;;;;5074804;28;20539;-62
2024/01/01 03:08:19;;;;;;;20.40;16.90;;;;;;;;;;5074657;28;20446;-62
2024/01/01 03:10:46;;;;;;;20.20;16.03;;;;;;;;;;5074602;28;20444;-63
2024/01/01 03:13:13;;;;;;;17.40;14.30;;;;;;;;;;5074362;28;21026;-62
2024/01/01 03:15:41;;;;;;;17.40;13.67;;;;;;;;;;5074655;28;20603;-62
2024/01/01 03:18:11;;;;;;;15.80;13.60;;;;;;;;;;5074195;28;20530;-62
2024/01/01 03:20:38;;;;;;;17.50;14.10;;;;;;;;;;5074414;28;20466;-62
2024/01/01 03:23:05;;;;;;;16.87;14.17;;;;;;;;;;5074312;28;20469;-62
2024/01/01 03:25:32;;;;;;;16.73;13.43;;;;;;;;;;5074287;28;20530;-62
2024/01/01 03:27:59;;;;;;;16.53;13.80;;;;;;;;;;5074062;28;21028;-62
2024/01/01 03:30:26;;;;;;;17.17;14.23;;;;;;;;;;5074040;28;20455;-62
2024/01/01 03:32:54;;;;;;;17.90;13.53;;;;;;;;;;5073974;28;20535;-62
2024/01/01 03:35:21;;;;;;;14.73;11.70;;;;;;;;;;5074408;28;20536;-62
2024/01/01 03:37:48;;;;;;;18.63;12.50;;;;;;;;;;5074000;28;20863;-62
2024/01/01 03:40:15;;;;;;;15.00;13.13;;;;;;;;;;5073918;28;20546;-62
2024/01/01 03:42:42;;;;;;;16.13;12.30;;;;;;;;;;5073793;28;20534;-62
2024/01/01 03:45:10;;;;;;;15.33;12.80;;;;;;;;;;5073593;28;20570;-62
2024/01/01 03:47:37;;;;;;;15.70;12.83;;;;;;;;;;5073877;28;20451;-62
2024/01/01 03:50:06;;;;;;;15.57;12.27;;;;;;;;;;5073833;28;20538;-62
2024/01/01 03:52:33;;;;;;;13.30;11.83;;;;;;;;;;5073698;28;20447;-62
2024/01/01 03:55:00;;;;;;;15.40;12.20;;;;;;;;;;5073609;28;20478;-62
2024/01/01 03:57:27;;;;;;;17.33;12.90;;;;;;;;;;5073490;28;20538;-62
2024/01/01 03:59:54;;;;;;;14.60;11.03;;;;;;;;;;5072784;28;20444;-62
2024/01/01 04:02:22;;;;;;;20.83;12.77;;;;;;;;;;5073647;28;20451;-62
2024/01/01 04:04:49;;;;;;;13.53;11.20;;;;;;;;;;5073457;28;20487;-62
2024/01/01 04:07:18;;;;;;;14.33;11.23;;;;;;;;;;5073415;28;20452;-62
2024/01/01 04:09:45;;;;;;;14.63;11.53;;;;;;;;;;5073146;28;20479;-62
2024/01/01 04:12:12;;;;;;;11.90;10.37;;;;;;;;;;5073221;28;20443;-62
2024/01/01 04:14:40;;;;;;;11.80;10.43;;;;;;;;;;5073441;28;20872;-61
2024/01/01 04:17:07;;;;;;;15.93;11.03;;;;;;;;;;5073322;28;20443;-62
2024/01/01 04:19:34;;;;;;;14.63;11.70;;;;;;;;;;5073309;28;20867;-62
2024/01/01 04:22:01;;;;;;;13.43;10.50;;;;;;;;;;5073208;28;20534;-62
2024/01/01 04:24:29;;;;;;;13.63;11.20;;;;;;;;;;5073016;28;20479;-62
2024/01/01 04:26:56;;;;;;;12.80;10.53;;;;;;;;;;5072992;28;20454;-62
2024/01/01 04:29:22;;;;;;;14.43;11.53;;;;;;;;;;5073223;28;20526;-62
2024/01/01 04:31:49;;;;;;;14.63;10.37;;;;;;;;;;5073196;28;21013;-62
2024/01/01 04:34:15;;;;;;;13.90;11.13;;;;;;;;;;5073154;28;21078;-62
2024/01/01 04:36:42;;;;;;;12.60;11.30;;;;;;;;;;5073114;28;20444;-62
2024/01/01 04:39:09;;;;;;;13.70;10.37;;;;;;;;;;5072966;28;20443;-62
2024/01/01 04:41:37;;;;;;;13.50;9.27;;;;;;;;;;5072893;28;20563;-62
2024/01/01 04:44:04;;;;;;;12.50;10.13;;;;;;;;;;5073025;28;20509;-62
2024/01/01 04:46:31;;;;;;;16.38;11.20;;;;;;;;;;5073013;28;20444;-61
2024/01/01 04:48:58;;;;;;;14.90;11.30;;;;;;;;;;5072929;28;20607;-61
2024/01/01 04:51:25;;;;;;;13.15;11.25;;;;;;;;;;5072896;28;20443;-62
2024/01/01 04:53:52;;;;;;;12.30;10.70;;;;;;;;;;5072765;28;20197;-62
2024/01/01 04:56:21;;;;;;;14.63;10.87;;;;;;;;;;5072732;28;20473;-62
2024/01/01 04:58:49;;;;;;;13.73;10.57;;;;;;;;;;5072893;28;20447;-62
2024/01/01 05:01:16;;;;;;;13.00;10.17;;;;;;;;;;5072809;28;20551;-62
2024/01/01 05:03:43;;;;;;;12.07;10.00;;;;;;;;;;5072703;28;20475;-62
2024/01/01 05:06:10;;;;;;;15.53;10.70;;;;;;;;;;5072680;28;20215;-62
2024/01/01 05:08:37;;;;;;;12.00;10.10;;;;;;;;;;5072552;28;20542;-62
2024/01/01 05:11:05;;;;;;;14.60;10.20;;;;;;;;;;5074483;28;20482;-62
2024/01/01 05:13:32;;;;;;;11.85;9.52;;;;;;;;;;5076867;28;20450;-62
2024/01/01 05:16:00;;;;;;;14.27;10.07;;;;;;;;;;5076855;28;20189;-62
2024/01/01 05:18:28;;;;;;;11.23;9.47;;;;;;;;;;5076661;28;20508;-62
2024/01/01 05:20:55;;;;;;;16.20;9.70;;;;;;;;;;5076514;28;20447;-62
2024/01/01 05:23:22;;;;;;;11.53;8.73;;;;;;;;;;5076717;28;20435;-62
2024/01/01 05:25:49;;;;;;;12.05;9.30;;;;;;;;;;5076528;28;20902;-62
2024/01/01 05:28:16;;;;;;;11.80;9.27;;;;;;;;;;5076520;28;20185;-63
2024/01/01 05:30:43;;;;;;;12.70;10.30;;;;;;;;;;5076395;28;20443;-62
2024/01/01 05:33:11;;;;;;;14.17;9.70;;;;;;;;;;5076347;28;20450;-62
2024/01/01 05:35:39;;;;;;;15.47;9.90;;;;;;;;;;5076220;28;20440;-62
2024/01/01 05:38:06;;;;;;;11.80;8.93;;;;;;;;;;5076377;28;20443;-62
2024/01/01 05:40:33;;;;;;;12.40;9.20;;;;;;;;;;5076591;28;21021;-62
2024/01/01 05:42:59;;;;;;;14.70;9.47;;;;;;;;;;5076180;28;20219;-62
2024/01/01 05:45:26;;;;;;;12.57;10.30;;;;;;;;;;5075983;28;20486;-62
2024/01/01 05:47:53;;;;;;;10.80;9.43;;;;;;;;;;5075855;28;20949;-62
2024/01/01 05:50:22;;;;;;;16.40;10.20;;;;;;;;;;5075969;28;20471;-62
2024/01/01 05:52:49;;;;;;;11.53;9.60;;;;;;;;;;5075864;28;20448;-62
2024/01/01 05:55:16;;;;;;;13.10;9.10;;;;;;;;;;5075799;28;20554;-62
2024/01/01 05:57:42;;;;;;;13.07;9.53;;;;;;;;;;5075861;28;20439;-62
2024/01/01 06:00:10;;;;;;;11.00;9.13;;;;;;;;;;5075783;28;20475;-62
2024/01/01 06:02:37;;;;;;;11.00;9.00;;;;;;;;;;5075644;28;20450;-62
2024/01/01 06:05:04;;;;;;;11.90;8.53;;;;;;;;;;5075769;28;20838;-62
2024/01/01 06:07:33;;;;;;;14.80;10.33;;;;;;;;;;5075877;28;20483;-62
2024/01/01 06:09:59;;;;;;;13.93;8.17;;;;;;;;;;5075604;28;20486;-62
2024/01/01 06:12:26;;;;;;;10.43;8.90;;;;;;;;;;5075614;28;20546;-62
2024/01/01 06:14:54;;;;;;;11.00;8.20;;;;;;;;;;5075551;28;20530;-62
2024/01/01 06:17:21;;;;;;;8.60;7.33;;;;;;;;;;5075381;28;20444;-62
2024/01/01 06:19:50;;;;;;;17.30;8.50;;;;;;;;;;5075886;28;20533;-62
2024/01/01 06:22:17;;;;;;;8.30;7.30;;;;;;;;;;5074864;28;20497;-62
2024/01/01 06:24:46;;;;;;;9.40;6.50;;;;;;;;;;5075408;28;20830;-62
2024/01/01 06:27:12;;;;;;;7.73;6.93;;;;;;;;;;5075500;28;20477;-62
2024/01/01 06:29:41;;;;;;;7.20;6.20;;;;;;;;;;5075318;28;20455;-62
2024/01/01 06:32:08;;;;;;;15.60;8.13;;;;;;;;;;5075430;28;20883;-62
2024/01/01 06:34:35;;;;;;;8.90;7.50;;;;;;;;;;5075383;28;20451;-62
2024/01/01 06:37:01;;;;;;;9.03;6.87;;;;;;;;;;5075133;28;21069;-62
2024/01/01 06:39:28;;;;;;;8.23;6.33;;;;;;;;;;5075127;28;20530;-62
2024/01/01 06:41:56;;;;;;;9.63;7.30;;;;;;;;;;5075254;28;20449;-62
2024/01/01 06:44:25;;;;;;;8.67;6.37;;;;;;;;;;5074898;28;20501;-62
2024/01/01 06:46:52;;;;;;;8.33;5.87;;;;;;;;;;5075396;28;20447;-62
2024/01/01 06:49:19;;;;;;;10.40;6.87;;;;;;;;;;5075064;28;20447;-62
2024/01/01 06:51:49;;;;;;;10.53;6.70;;;;;;;;;;5074944;28;20440;-63
2024/01/01 06:54:16;;;;;;;8.07;7.20;;;;;;;;;;5074701;28;20455;-62
2024/01/01 06:56:43;;;;;;;9.30;6.50;;;;;;;;;;5074998;28;20448;-63
2024/01/01 06:59:12;;;;;;;9.07;6.17;;;;;;;;;;5074962;28;20475;-62
2024/01/01 07:01:41;;;;;;;9.37;6.30;;;;;;;;;;5074604;28;20958;-63
2024/01/01 07:04:08;;;;;;;7.13;6.10;;;;;;;;;;5074675;28;20475;-63
2024/01/01 07:06:35;;;;;;;8.20;5.97;;;;;;;;;;5074654;28;20784;-62
2024/01/01 07:09:02;;;;;;;7.50;5.50;;;;;;;;;;5074556;28;20450;-61
2024/01/01 07:11:30;;;;;;;6.83;5.97;;;;;;;;;;5074428;28;20443;-62
2024/01/01 07:13:57;;;;;;;7.70;5.30;;;;;;;;;;5074613;28;20443;-62
2024/01/01 07:16:25;;;;;;;7.27;5.27;;;;;;;;;;5074467;28;20501;-62
2024/01/01 07:18:52;;;;;;;7.63;5.10;;;;;;;;;;5074440;28;20448;-62
2024/01/01 07:21:19;;;;;;;8.30;4.93;;;;;;;;;;5074328;28;20852;-62
2024/01/01 07:23:46;;;;;;;6.50;5.47;;;;;;;;;;5074169;28;20450;-62
2024/01/01 07:26:13;;;;;;;7.57;5.20;;;;;;;;;;5074274;28;20842;-62
2024/01/01 07:28:41;;;;;;;8.37;5.27;;;;;;;;;;5074339;28;20447;-62
2024/01/01 07:31:08;;;;;;;9.43;5.40;;;;;;;;;;5074167;28;20447;-62
2024/01/01 07:33:36;;;;;;;5.83;5.00;;;;;;;;;;5073663;28;20443;-62
2024/01/01 07:36:03;;;;;;;10.20;5.57;;;;;;;;;;5073544;28;20535;-62
2024/01/01 07:38:30;;;;;;;5.10;4.67;;;;;;;;;;5073834;28;20538;-61
2024/01/01 07:40:57;;;;;;;6.20;4.77;;;;;;;;;;5073856;28;20450;-62
2024/01/01 07:43:24;;;;;;;5.10;4.60;;;;;;;;;;5073951;28;20874;-62
2024/01/01 07:45:50;;;;;;;8.40;5.93;;;;;;;;;;5073945;28;20479;-62
2024/01/01 07:48:17;;;;;;;6.30;5.33;;;;;;;;;;5073770;28;20444;-62
2024/01/01 07:50:46;;;;;;;5.57;4.63;;;;;;;;;;5073751;28;20439;-62
2024/01/01 07:53:12;;;;;;;7.07;4.70;;;;;;;;;;5073606;28;20440;-62
2024/01/01 07:55:51;;;;;;;5.80;4.90;;;;;;;;;;5090531;27;20534;-63
2024/01/01 07:58:18;;;;;;;5.67;4.80;;;;;;;;;;5090615;28;20528;-64
2024/01/01 08:00:45;;;;;;;6.07;4.80;;;;;;;;;;5090425;28;20477;-64
2024/01/01 08:03:13;;;;;;;5.43;4.90;;;;;;;;;;5090386;28;20534;-63
2024/01/01 08:05:40;;;;;;;6.20;5.03;;;;;;;;;;5090192;28;20446;-64
2024/01/01 08:08:08;;;;;;;9.77;4.40;;;;;;;;;;5090204;28;20514;-63
2024/01/01 08:10:35;;;;;;;5.30;3.67;;;;;;;;;;5090346;28;20807;-63
2024/01/01 08:13:03;;;;;;;8.03;3.80;;;;;;;;;;5090179;28;20478;-64
2024/01/01 08:15:30;;;;;;;5.20;4.13;;;;;;;;;;5090050;28;20475;-63
2024/01/01 08:17:57;;;;;;;7.80;3.60;;;;;;;;;;5090078;28;20508;-64
2024/01/01 08:20:24;;;;;;;5.57;3.47;;;;;;;;;;5089998;28;20529;-63
2024/01/01 08:22:51;;;;;;;5.47;3.57;;;;;;;;;;5090124;28;20443;-63
2024/01/01 08:25:18;;;;;;;7.23;3.97;;;;;;;;;;5090033;28;20461;-63
2024/01/01 08:27:44;;;;;;;8.40;4.17;;;;;;;;;;5089905;28;20776;-63
2024/01/01 08:30:13;;;;;;;13.20;5.90;;;;;;;;;;5089833;28;20449;-63
2024/01/01 08:32:40;;;;;;;4.33;3.13;;;;;;;;;;5089660;28;20443;-63
2024/01/01 08:35:07;;;;;;;3.90;3.47;;;;;;;;;;5089781;28;20923;-63
2024/01/01 08:37:34;;;;;;;6.20;3.20;;;;;;;;;;5089827;28;20451;-63
2024/01/01 08:40:01;;;;;;;6.00;4.13;;;;;;;;;;5089719;28;20478;-64
2024/01/01 08:42:28;;;;;;;4.37;3.37;;;;;;;;;;5089601;28;20542;-63
2024/01/01 08:44:55;;;;;;;3.60;3.30;;;;;;;;;;5089648;28;20866;-63
2024/01/01 08:47:23;;;;;;;9.87;3.73;;;;;;;;;;5089772;28;20450;-64
2024/01/01 08:49:50;;;;;;;10.43;3.77;;;;;;;;;;5089622;28;20534;-63
2024/01/01 08:52:17;;;;;;;4.77;3.00;;;;;;;;;;5089565;28;20442;-64
2024/01/01 08:54:44;;;;;;;4.13;3.23;;;;;;;;;;5089184;28;20486;-63
2024/01/01 08:57:12;;;;;;;7.03;3.93;;;;;;;;;;5089361;28;20450;-64
2024/01/01 08:59:40;;;;;;;10.67;3.63;;;;;;;;;;5089158;28;20533;-64
2024/01/01 09:02:07;;;;;;;4.73;3.30;;;;;;;;;;5089147;28;20471;-63
2024/01/01 09:04:35;;;;;;;9.17;3.60;;;;;;;;;;5089285;28;20538;-63
2024/01/01 09:07:03;;;;;;;12.50;7.63;;;;;;;;;;5076183;28;21008;-63
2024/01/01 09:09:30;;;;;;;6.00;4.37;;;;;;;;;;5075621;28;20447;-63
2024/01/01 09:11:57;;;;;;;3.93;3.30;;;;;;;;;;5075507;28;20467;-63
2024/01/01 09:14:25;;;;;;;3.97;3.57;;;;;;;;;;5075372;28;20467;-64
2024/01/01 09:16:52;;;;;;;5.83;3.80;;;;;;;;;;5075578;28;20447;-63
2024/01/01 09:19:19;;;;;;;4.27;3.23;;;;;;;;;;5075479;28;20448;-63
2024/01/01 09:21:48;;;;;;;3.80;3.40;;;;;;;;;;5075309;28;20443;-64
2024/01/01 09:24:15;;;;;;;5.43;3.43;;;;;;;;;;5075399;28;20440;-64
2024/01/01 09:26:42;;;;;;;6.20;3.50;;;;;;;;;;5075196;28;20445;-64
2024/01/01 09:29:09;;;;;;;4.97;3.00;;;;;;;;;;5075196;28;20447;-63
2024/01/01 09:31:37;;;;;;;4.57;3.80;;;;;;;;;;5075338;28;20889;-64
2024/01/01 09:34:06;;;;;;;5.27;3.70;;;;;;;;;;5075154;28;20446;-64
2024/01/01 09:36:33;;;;;;;5.73;3.90;;;;;;;;;;5075034;28;20526;-63
2024/01/01 09:39:01;;;;;;;6.93;3.70;;;;;;;;;;5074962;28;21009;-63
2024/01/01 09:41:28;;;;;;;5.60;2.90;;;;;;;;;;5074917;28;21013;-64
2024/01/01 09:43:56;;;;;;;5.20;3.50;;;;;;;;;;5075141;28;20526;-64
2024/01/01 09:46:23;;;;;;;7.57;3.90;;;;;;;;;;5074960;28;20448;-64
2024/01/01 09:48:50;;;;;;;5.50;3.63;;;;;;;;;;5074951;28;20447;-64
2024/01/01 09:51:19;;;;;;;3.83;3.43;;;;;;;;;;5074806;28;20473;-64
2024/01/01 09:53:46;;;;;;;5.53;3.93;;;;;;;;;;5074626;28;20971;-64
2024/01/01 09:56:15;;;;;;;6.93;4.13;;;;;;;;;;5074849;28;20482;-64
2024/01/01 09:58:42;;;;;;;7.37;3.93;;;;;;;;;;5074743;28;20530;-64
2024/01/01 10:01:10;;;;;;;4.07;3.67;;;;;;;;;;5074712;28;20450;-64
2024/01/01 10:03:37;;;;;;;5.27;3.60;;;;;;;;;;5074614;28;20482;-64
2024/01/01 10:06:07;;;;;;;5.53;3.60;;;;;;;;;;5074671;28;20501;-64
2024/01/01 10:08:34;;;;;;;6.10;3.87;;;;;;;;;;5074445;28;20444;-64
2024/01/01 10:11:15;;;;;;;5.30;3.53;;;;;;;;;;5074608;28;20534;-64
2024/01/01 10:13:45;;;;;;;9.37;3.70;;;;;;;;;;5074496;28;20444;-64
2024/01/01 10:16:23;;;;;;;9.07;3.87;;;;;;;;;;5074283;28;20518;-64
2024/01/01 10:18:54;;;;;;;5.30;4.10;;;;;;;;;;5073296;28;20540;-64
2024/01/01 10:21:26;;;;;;;4.97;3.50;;;;;;;;;;5074428;28;20534;-63
2024/01/01 10:23:53;;;;;;;7.87;3.87;;;;;;;;;;5074260;28;21022;-64
2024/01/01 10:26:20;;;;;;;7.67;4.00;;;;;;;;;;5074209;28;20447;-64
2024/01/01 10:28:48;;;;;;;5.53;3.80;;;;;;;;;;5074064;28;20538;-63
2024/01/01 10:31:16;;;;;;;4.90;3.70;;;;;;;;;;5073970;28;20450;-64
2024/01/01 10:33:43;;;;;;;4.37;3.90;;;;;;;;;;5073877;28;20455;-64
2024/01/01 10:36:14;;;;;;;6.57;4.33;;;;;;;;;;5074000;28;20505;-64
2024/01/01 10:38:41;;;;;;;3.90;3.43;;;;;;;;;;5074035;28;20447;-64
2024/01/01 10:41:08;;;;;;;5.53;3.80;;;;;;;;;;5073821;28;20538;-63
2024/01/01 10:43:37;;;;;;;7.47;3.90;;;;;;;;;;5073736;28;20999;-63
2024/01/01 10:46:05;;;;;;;7.87;3.97;;;;;;;;;;5073627;28;21005;-64
2024/01/01 10:48:36;;;;;;;5.37;4.20;;;;;;;;;;5073880;28;20810;-64
2024/01/01 10:51:11;;;;;;;4.57;4.07;;;;;;;;;;5073785;28;20456;-64
2024/01/01 10:53:47;;;;;;;5.60;3.50;;;;;;;;;;5073480;28;20852;-64
2024/01/01 10:56:21;;;;;;;5.30;3.70;;;;;;;;;;5073394;28;20483;-64
2024/01/01 10:58:57;;;;;;;3.80;3.50;;;;;;;;;;5073672;28;20533;-63
2024/01/01 11:01:25;;;;;;;8.23;3.70;;;;;;;;;;5073642;28;20450;-64
2024/01/01 11:03:52;;;;;;;5.27;4.00;;;;;;;;;;5073476;28;20530;-64
2024/01/01 11:06:24;;;;;;;3.93;3.60;;;;;;;;;;5073332;28;20539;-64
2024/01/01 11:08:51;;;;;;;13.07;4.60;;;;;;;;;;5073411;28;20475;-64
2024/01/01 11:11:30;;;;;;;4.83;3.80;;;;;;;;;;5073517;28;20471;-63
2024/01/01 11:13:57;;;;;;;6.60;3.80;;;;;;;;;;5073491;28;20844;-64
2024/01/01 11:16:26;;;;;;;5.67;3.60;;;;;;;;;;5073190;28;20577;-64
2024/01/01 11:18:53;;;;;;;6.50;3.90;;;;;;;;;;5073247;28;20448;-64
2024/01/01 11:21:30;;;;;;;7.00;3.93;;;;;;;;;;5073087;28;20450;-64
2024/01/01 11:24:01;;;;;;;6.03;3.67;;;;;;;;;;5073157;28;20962;-64
2024/01/01 11:26:32;;;;;;;5.50;3.30;;;;;;;;;;5073296;28;20456;-64
2024/01/01 11:29:02;;;;;;;7.73;3.40;;;;;;;;;;5072885;28;20448;-63
2024/01/01 11:31:30;;;;;;;4.17;3.43;;;;;;;;;;5073102;28;20447;-64
2024/01/01 11:34:01;;;;;;;5.17;3.20;;;;;;;;;;5072873;28;20440;-64
2024/01/01 11:36:28;;;;;;;5.87;3.60;;;;;;;;;;5072773;28;21061;-64
2024/01/01 11:38:55;;;;;;;8.43;4.20;;;;;;;;;;5072666;28;20447;-64
2024/01/01 11:41:25;;;;;;;6.53;3.70;;;;;;;;;;5072817;28;20546;-64
2024/01/01 11:43:52;;;;;;;5.57;3.43;;;;;;;;;;5073211;28;20586;-64
2024/01/01 11:46:25;;;;;;;4.23;3.40;;;;;;;;;;5072640;28;20444;-64
2024/01/01 11:49:02;;;;;;;8.03;3.40;;;;;;;;;;5072694;28;20498;-64
2024/01/01 11:51:33;;;;;;;8.20;3.47;;;;;;;;;;5072877;28;20530;-64
2024/01/01 11:54:07;;;;;;;9.70;3.73;;;;;;;;;;5072648;28;20478;-63
2024/01/01 11:56:34;;;;;;;6.50;5.50;;;;;;;;;;5072587;28;20851;-64
2024/01/01 11:59:01;;;;;;;5.10;3.80;;;;;;;;;;5072754;28;20473;-64
2024/01/01 12:01:28;;;;;;;7.20;3.77;;;;;;;;;;5072851;28;20443;-64
2024/01/01 12:03:55;;;;;;;6.97;5.73;;;;;;;;;;5072764;28;20534;-64
2024/01/01 12:06:24;;;;;;;9.50;3.80;;;;;;;;;;5072770;28;20451;-64
2024/01/01 12:08:51;;;;;;;6.00;4.17;;;;;;;;;;5072676;28;20538;-64
2024/01/01 12:11:18;;;;;;;6.73;3.80;;;;;;;;;;5072457;28;20443;-64
2024/01/01 12:13:55;;;;;;;5.33;3.77;;;;;;;;;;5072621;28;20448;-64
2024/01/01 12:16:22;;;;;;;6.13;3.10;;;;;;;;;;5072257;28;20486;-64
2024/01/01 12:18:49;;;;;;;3.73;3.07;;;;;;;;;;5072759;28;20447;-64
2024/01/01 12:21:16;;;;;;;4.87;3.10;;;;;;;;;;5072593;28;20542;-64
2024/01/01 12:23:44;;;;;;;11.50;3.70;;;;;;;;;;5072468;28;21072;-65
2024/01/01 12:26:13;;;;;;;7.60;3.23;;;;;;;;;;5072352;28;20538;-64
2024/01/01 12:28:40;;;;;;;4.93;3.03;;;;;;;;;;5072635;28;20450;-64
2024/01/01 12:31:07;;;;;;;6.20;4.27;;;;;;;;;;5072288;28;21034;-64
2024/01/01 12:33:34;;;;;;;10.23;4.57;;;;;;;;;;5072403;28;20530;-64
2024/01/01 12:36:01;;;;;;;4.13;3.30;;;;;;;;;;5072148;28;20475;-64
2024/01/01 12:38:29;;;;;;;8.37;4.30;;;;;;;;;;5072195;28;20863;-64
2024/01/01 12:40:57;;;;;;;7.60;4.63;;;;;;;;;;5073421;28;20553;-64
2024/01/01 12:43:24;;;;;;;3.83;3.17;;;;;;;;;;5076268;28;20852;-64
2024/01/01 12:45:51;;;;;;;5.33;3.23;;;;;;;;;;5076036;28;20543;-64
2024/01/01 12:48:19;;;;;;;7.50;3.00;;;;;;;;;;5076021;28;20478;-64
2024/01/01 12:50:46;;;;;;;6.50;3.60;;;;;;;;;;5076066;28;20479;-64
2024/01/01 12:53:13;;;;;;;6.83;3.60;;;;;;;;;;5075850;28;20798;-64
2024/01/01 12:55:40;;;;;;;6.57;3.10;;;;;;;;;;5075593;28;20489;-64
2024/01/01 12:58:08;;;;;;;3.70;2.80;;;;;;;;;;5075874;28;20470;-64
2024/01/01 13:00:35;;;;;;;5.47;3.10;;;;;;;;;;5075783;28;20534;-64
2024/01/01 13:03:02;;;;;;;5.03;3.10;;;;;;;;;;5075662;28;20447;-64
2024/01/01 13:05:29;;;;;;;6.00;3.87;;;;;;;;;;5075565;28;20443;-64
2024/01/01 13:07:56;;;;;;;5.43;3.13;;;;;;;;;;5075687;28;20872;-64
2024/01/01 13:10:22;;;;;;;8.80;2.97;;;;;;;;;;5075695;28;20527;-64
2024/01/01 13:12:49;;;;;;;3.60;2.70;;;;;;;;;;5075736;28;20445;-64
2024/01/01 13:15:21;;;;;;;5.67;2.97;;;;;;;;;;5075515;28;20526;-64
2024/01/01 13:17:48;;;;;;;7.10;3.33;;;;;;;;;;5075534;28;20490;-64
2024/01/01 13:20:15;;;;;;;5.90;3.77;;;;;;;;;;5075327;28;20530;-64
2024/01/01 13:22:41;;;;;;;3.83;3.30;;;;;;;;;;5075502;28;21010;-64
2024/01/01 13:25:08;;;;;;;4.97;3.50;;;;;;;;;;5075529;28;20447;-64
2024/01/01 13:27:35;;;;;;;6.10;3.47;;;;;;;;;;5075369;28;20538;-64
2024/01/01 13:30:03;;;;;;;4.60;2.90;;;;;;;;;;5075295;28;20447;-64
2024/01/01 13:32:31;;;;;;;6.43;2.87;;;;;;;;;;5075159;28;20531;-64
2024/01/01 13:34:58;;;;;;;6.63;3.13;;;;;;;;;;5075079;28;20439;-63
2024/01/01 13:37:24;;;;;;;4.90;3.17;;;;;;;;;;5074897;28;21022;-64
2024/01/01 13:39:52;;;;;;;7.57;3.80;;;;;;;;;;5075123;28;20858;-64
2024/01/01 13:42:18;;;;;;;7.43;3.13;;;;;;;;;;5075086;28;20450;-64
2024/01/01 13:44:47;;;;;;;7.37;3.00;;;;;;;;;;5074979;28;20986;-64
2024/01/01 13:47:14;;;;;;;5.77;3.20;;;;;;;;;;5074938;28;20467;-64
2024/01/01 13:49:42;;;;;;;6.70;3.50;;;;;;;;;;5074860;28;20530;-64
2024/01/01 13:52:10;;;;;;;5.70;3.27;;;;;;;;;;5074937;28;20465;-64
2024/01/01 13:54:37;;;;;;;4.57;3.27;;;;;;;;;;5074743;28;20583;-64
2024/01/01 13:57:04;;;;;;;5.10;3.13;;;;;;;;;;5074734;28;20483;-64
2024/01/01 13:59:31;;;;;;;5.20;3.00;;;;;;;;;;5074768;28;20534;-64
2024/01/01 14:01:58;;;;;;;6.40;2.77;;;;;;;;;;5074619;28;20542;-64
2024/01/01 14:04:25;;;;;;;3.67;3.37;;;;;;;;;;5074646;28;20458;-64
2024/01/01 14:06:55;;;;;;;7.23;3.00;;;;;;;;;;5074696;28;20841;-64
2024/01/01 14:09:22;;;;;;;5.60;3.00;;;;;;;;;;5074525;28;20475;-64
2024/01/01 14:11:49;;;;;;;3.50;2.70;;;;;;;;;;5074505;28;20883;-64
2024/01/01 14:14:17;;;;;;;7.43;3.37;;;;;;;;;;5074318;28;20443;-64
2024/01/01 14:16:45;;;;;;;7.13;2.97;;;;;;;;;;5074492;28;20844;-64
2024/01/01 14:19:13;;;;;;;2.80;2.60;;;;;;;;;;5074566;28;20448;-64
2024/01/01 14:21:40;;;;;;;6.73;2.93;;;;;;;;;;5074222;28;20450;-64
2024/01/01 14:24:09;;;;;;;7.13;3.27;;;;;;;;;;5074334;28;20534;-64
2024/01/01 14:26:35;;;;;;;4.57;2.97;;;;;;;;;;5074229;28;20451;-64
2024/01/01 14:29:02;;;;;;;4.07;2.73;;;;;;;;;;5074087;28;21037;-64
2024/01/01 14:31:29;;;;;;;6.00;2.80;;;;;;;;;;5074073;28;20560;-64
2024/01/01 14:33:56;;;;;;;4.20;2.67;;;;;;;;;;5074038;28;20824;-64